Aviation Digital Data Service (ADDS)

Output produced by METARs form (1835 UTC 30 September 2016)
found at http://www.aviationweather.gov/adds/metars/
 
KBMI 301725Z 3018/0118 02011KT P6SM -SHRA BKN012 OVC022 
     TEMPO 3018/3020 3SM -SHRA BKN009 
     FM302000 02011KT P6SM VCSH OVC025 
     FM010300 02007KT P6SM VCSH SCT003 OVC008 
     FM010600 01005KT 3SM -DZ BR OVC003 
     FM011600 33005KT 3SM BR OVC012